createdAt,value
2023-03-31T00:01:00.647Z,95527.00
2023-03-31T00:03:27.732Z,95517.78
2023-03-31T00:05:59.323Z,95518.38
2023-03-31T00:08:29.914Z,95521.22
2023-03-31T00:11:00.686Z,95520.69
2023-03-31T00:13:27.541Z,95476.13
2023-03-31T00:16:09.313Z,95494.41
2023-03-31T00:18:37.075Z,95497.53
2023-03-31T00:21:09.131Z,95500.59
2023-03-31T00:23:35.892Z,95478.84
2023-03-31T00:26:02.566Z,95485.69
2023-03-31T00:28:29.052Z,95494.06
2023-03-31T00:31:00.379Z,95489.56
2023-03-31T00:33:26.855Z,95487.50
2023-03-31T00:35:53.344Z,95475.97
2023-03-31T00:38:21.924Z,95473.34
2023-03-31T00:40:51.167Z,95458.91
2023-03-31T00:43:38.323Z,95456.53
2023-03-31T00:46:17.787Z,95421.41
2023-03-31T00:48:50.924Z,95435.88
2023-03-31T00:51:19.160Z,95443.38
2023-03-31T00:53:55.381Z,95440.50
2023-03-31T00:56:22.280Z,95433.75
2023-03-31T00:58:49.952Z,95421.50
2023-03-31T01:01:20.583Z,95430.09
2023-03-31T01:03:48.105Z,95425.63
2023-03-31T01:06:19.691Z,95433.19
2023-03-31T01:08:49.972Z,95427.34
2023-03-31T01:11:20.814Z,95417.97
2023-03-31T01:13:50.869Z,95417.91
2023-03-31T01:16:18.456Z,95398.16
2023-03-31T01:18:46.478Z,95400.44
2023-03-31T01:21:42.660Z,95403.63
2023-03-31T01:24:47.325Z,95405.84
2023-03-31T01:27:22.149Z,95398.81
2023-03-31T01:30:28.275Z,95398.03
2023-03-31T01:32:57.824Z,95388.84
2023-03-31T01:36:02.866Z,95378.41
2023-03-31T01:38:57.455Z,95372.44
2023-03-31T01:41:31.071Z,95366.69
2023-03-31T01:44:16.413Z,95351.53
2023-03-31T01:46:58.432Z,95362.66
2023-03-31T01:49:46.720Z,95372.91
2023-03-31T01:52:13.897Z,95363.72
2023-03-31T01:54:50.857Z,95364.28
2023-03-31T01:57:28.181Z,95354.53
2023-03-31T02:00:09.743Z,95352.31
2023-03-31T02:02:46.364Z,95346.69
2023-03-31T02:05:18.990Z,95332.41
2023-03-31T02:07:54.728Z,95340.09
2023-03-31T02:10:24.120Z,95333.72
2023-03-31T02:12:51.778Z,95326.31
2023-03-31T02:15:27.128Z,95324.66
2023-03-31T02:17:58.148Z,95320.03
2023-03-31T02:20:27.343Z,95328.94
2023-03-31T02:22:56.469Z,95313.97
2023-03-31T02:25:28.614Z,95300.53
2023-03-31T02:28:04.727Z,95306.69
2023-03-31T02:30:45.227Z,95311.19
2023-03-31T02:33:11.999Z,95301.19
2023-03-31T02:35:38.462Z,95295.78
2023-03-31T02:38:06.748Z,95297.94
2023-03-31T02:40:33.188Z,95303.19
2023-03-31T02:42:59.874Z,95296.91
2023-03-31T02:45:46.062Z,95309.66
2023-03-31T02:48:24.670Z,95305.59
2023-03-31T02:51:44.868Z,95316.34
2023-03-31T02:55:03.952Z,95307.75
2023-03-31T02:58:04.420Z,95307.25
2023-03-31T03:00:55.310Z,95297.94
2023-03-31T03:03:58.891Z,95296.13
2023-03-31T03:06:53.895Z,95296.88
2023-03-31T03:09:34.039Z,95296.81
2023-03-31T03:12:16.253Z,95274.88
2023-03-31T03:15:13.587Z,95294.50
2023-03-31T03:17:44.123Z,95290.53
2023-03-31T03:20:12.107Z,95297.63
2023-03-31T03:22:39.467Z,95295.84
2023-03-31T03:25:09.535Z,95301.13
2023-03-31T03:27:36.746Z,95311.44
2023-03-31T03:30:06.434Z,95309.81
2023-03-31T03:32:33.741Z,95314.22
2023-03-31T03:35:05.429Z,95306.94
2023-03-31T03:37:32.422Z,95325.28
2023-03-31T03:39:58.922Z,95310.75
2023-03-31T03:42:25.370Z,95335.06
2023-03-31T03:44:51.838Z,95330.78
2023-03-31T03:47:18.304Z,95300.03
2023-03-31T03:49:44.787Z,95317.75
2023-03-31T03:52:11.278Z,95314.34
2023-03-31T03:54:37.755Z,95319.13
2023-03-31T03:57:04.234Z,95307.59
2023-03-31T03:59:30.712Z,95294.59
2023-03-31T04:01:57.274Z,95287.31
2023-03-31T04:04:23.876Z,95279.94
2023-03-31T04:06:51.169Z,95286.22
2023-03-31T04:09:18.012Z,95267.44
2023-03-31T04:11:44.507Z,95276.88
2023-03-31T04:14:11.110Z,95272.34
2023-03-31T04:16:38.427Z,95265.28
2023-03-31T04:19:05.166Z,95264.81
2023-03-31T04:21:34.794Z,95235.56
2023-03-31T04:24:04.336Z,95242.75
2023-03-31T04:26:43.180Z,95250.84
2023-03-31T04:29:16.580Z,95227.81
2023-03-31T04:31:44.067Z,95223.56
2023-03-31T04:34:13.641Z,95221.22
2023-03-31T04:36:42.639Z,95217.50
2023-03-31T04:39:10.780Z,95210.34
2023-03-31T04:41:37.890Z,95199.41
2023-03-31T04:44:04.593Z,95196.84
2023-03-31T04:46:31.980Z,95185.59
2023-03-31T04:48:59.246Z,95187.25
2023-03-31T04:51:25.940Z,95188.00
2023-03-31T04:53:52.378Z,95119.84
2023-03-31T04:56:18.853Z,95110.66
2023-03-31T04:58:45.444Z,95123.91
2023-03-31T05:01:13.751Z,95060.38
2023-03-31T05:03:40.447Z,95061.78
2023-03-31T05:06:07.636Z,95082.09
2023-03-31T05:08:34.523Z,95089.31
2023-03-31T05:11:02.841Z,95088.09
2023-03-31T05:13:29.729Z,95061.53
2023-03-31T05:15:56.258Z,95049.09
2023-03-31T05:18:22.743Z,95059.81
2023-03-31T05:20:49.328Z,95041.00
2023-03-31T05:23:15.799Z,95041.41
2023-03-31T05:25:42.760Z,94990.31
2023-03-31T05:28:12.171Z,95044.09
2023-03-31T05:30:38.730Z,95037.22
2023-03-31T05:33:05.270Z,95014.50
2023-03-31T05:35:31.991Z,94992.41
2023-03-31T05:37:58.579Z,95003.97
2023-03-31T05:40:25.703Z,94956.91
2023-03-31T05:42:52.139Z,94991.25
2023-03-31T05:45:18.620Z,94934.63
2023-03-31T05:47:45.234Z,94940.69
2023-03-31T05:50:14.035Z,94944.41
2023-03-31T05:52:41.185Z,94959.91
2023-03-31T05:55:08.375Z,94949.75
2023-03-31T05:57:34.909Z,94935.75
2023-03-31T06:00:01.406Z,94913.03
2023-03-31T06:02:31.317Z,94928.03
2023-03-31T06:04:57.828Z,94920.53
2023-03-31T06:07:25.013Z,94922.59
2023-03-31T06:09:51.648Z,94911.06
2023-03-31T06:12:18.262Z,94910.69
2023-03-31T06:14:44.688Z,94824.53
2023-03-31T06:17:11.192Z,94870.06
2023-03-31T06:19:40.065Z,94854.00
2023-03-31T06:22:06.524Z,94854.66
2023-03-31T06:24:32.975Z,94849.03
2023-03-31T06:27:00.900Z,94797.75
2023-03-31T06:29:27.836Z,94801.06
2023-03-31T06:31:54.366Z,94844.03
2023-03-31T06:34:21.651Z,94866.03
2023-03-31T06:36:48.192Z,94820.94
2023-03-31T06:39:14.637Z,94843.41
2023-03-31T06:41:41.080Z,94842.34
2023-03-31T06:44:08.988Z,94845.38
2023-03-31T06:46:35.541Z,94805.28
2023-03-31T06:49:02.290Z,94824.13
2023-03-31T06:51:30.597Z,94847.59
2023-03-31T06:53:58.208Z,94777.25
2023-03-31T06:56:24.661Z,94866.41
2023-03-31T06:58:51.103Z,94868.38
2023-03-31T07:01:17.642Z,94827.88
2023-03-31T07:03:44.200Z,94870.91
2023-03-31T07:06:11.245Z,94896.03
2023-03-31T07:08:37.712Z,94912.34
2023-03-31T07:11:04.812Z,94949.47
2023-03-31T07:13:31.736Z,94958.59
2023-03-31T07:15:58.498Z,94987.84
2023-03-31T07:18:26.211Z,94950.94
2023-03-31T07:20:53.029Z,94925.91
2023-03-31T07:23:20.742Z,94991.75
2023-03-31T07:25:48.200Z,95015.13
2023-03-31T07:28:15.288Z,95005.19
2023-03-31T07:30:42.019Z,95003.25
2023-03-31T07:33:09.373Z,94993.59
2023-03-31T07:35:40.124Z,94972.88
2023-03-31T07:38:08.707Z,94941.19
2023-03-31T07:40:35.239Z,94915.97
2023-03-31T07:43:02.104Z,94940.41
2023-03-31T07:45:28.835Z,94924.03
2023-03-31T07:47:55.508Z,94898.19
2023-03-31T07:50:23.537Z,94871.72
2023-03-31T07:52:52.585Z,94899.34
2023-03-31T07:55:20.063Z,94891.31
2023-03-31T07:57:47.562Z,94850.84
2023-03-31T08:00:15.782Z,94817.19
2023-03-31T08:02:43.171Z,94856.81
2023-03-31T08:05:12.051Z,94855.28
2023-03-31T08:07:41.732Z,94814.25
2023-03-31T08:10:11.144Z,94787.00
2023-03-31T08:12:37.622Z,94822.44
2023-03-31T08:15:05.219Z,94818.50
2023-03-31T08:17:31.827Z,94798.13
2023-03-31T08:20:01.668Z,94826.25
2023-03-31T08:22:30.570Z,94821.22
2023-03-31T08:24:57.013Z,94771.84
2023-03-31T08:27:23.680Z,94747.66
2023-03-31T08:29:50.095Z,94795.78
2023-03-31T08:32:16.652Z,94747.41
2023-03-31T08:34:43.077Z,94826.47
2023-03-31T08:37:10.410Z,94803.16
2023-03-31T08:39:37.270Z,94711.31
2023-03-31T08:42:33.450Z,94813.13
2023-03-31T08:45:06.508Z,94828.03
2023-03-31T08:47:36.515Z,94819.91
2023-03-31T08:50:16.828Z,94857.75
2023-03-31T08:52:49.699Z,94858.16
2023-03-31T08:55:32.432Z,94890.34
2023-03-31T08:58:06.695Z,94848.88
2023-03-31T09:00:43.897Z,94904.06
2023-03-31T09:03:25.811Z,94879.00
2023-03-31T09:06:05.601Z,94829.34
2023-03-31T09:08:38.064Z,94859.94
2023-03-31T09:11:27.017Z,94845.03
2023-03-31T09:14:12.315Z,94896.38
2023-03-31T09:16:48.713Z,94865.91
2023-03-31T09:19:23.729Z,94871.53
2023-03-31T09:21:53.300Z,94858.22
2023-03-31T09:24:30.925Z,94847.81
2023-03-31T09:27:12.583Z,94828.34
2023-03-31T09:30:11.917Z,94828.16
2023-03-31T09:32:39.420Z,94809.84
2023-03-31T09:35:21.560Z,94825.38
2023-03-31T09:37:49.503Z,94821.94
2023-03-31T09:40:24.622Z,94802.00
2023-03-31T09:42:58.142Z,94793.47
2023-03-31T09:45:24.944Z,94810.41
2023-03-31T09:47:55.075Z,94801.38
2023-03-31T09:50:25.403Z,94806.13
2023-03-31T09:52:55.706Z,94785.94
2023-03-31T09:55:38.957Z,94790.97
2023-03-31T09:58:08.405Z,94784.09
2023-03-31T10:00:35.530Z,94772.56
2023-03-31T10:03:07.568Z,94802.56
2023-03-31T10:05:51.048Z,94788.72
2023-03-31T10:08:17.534Z,94779.56
2023-03-31T10:10:51.143Z,94776.19
2023-03-31T10:13:22.299Z,94759.34
2023-03-31T10:15:55.792Z,94766.44
2023-03-31T10:18:32.125Z,94675.88
2023-03-31T10:21:05.503Z,94754.75
2023-03-31T10:23:34.617Z,94716.56
2023-03-31T10:26:03.689Z,94743.09
2023-03-31T10:28:36.127Z,94714.41
2023-03-31T10:31:04.143Z,94724.22
2023-03-31T10:33:34.883Z,94730.97
2023-03-31T10:36:15.836Z,94709.75
2023-03-31T10:38:48.475Z,94695.06
2023-03-31T10:41:27.192Z,94697.06
2023-03-31T10:43:55.706Z,94711.50
2023-03-31T10:46:40.576Z,94710.41
2023-03-31T10:49:15.846Z,94711.31
2023-03-31T10:51:56.143Z,94689.88
2023-03-31T10:54:22.717Z,94693.28
2023-03-31T10:57:03.329Z,94674.66
2023-03-31T10:59:58.695Z,94671.09
2023-03-31T11:02:51.601Z,94679.16
2023-03-31T11:05:30.170Z,94665.34
2023-03-31T11:08:27.597Z,94660.72
2023-03-31T11:11:38.585Z,94683.16
2023-03-31T11:14:36.389Z,94661.94
2023-03-31T11:17:23.163Z,94681.81
2023-03-31T11:20:03.282Z,94721.41
2023-03-31T11:22:43.101Z,94762.31
2023-03-31T11:25:28.602Z,94800.91
2023-03-31T11:28:24.615Z,94740.22
2023-03-31T11:31:04.094Z,94712.97
2023-03-31T11:33:55.468Z,94729.91
2023-03-31T11:36:49.476Z,94717.97
2023-03-31T11:39:39.375Z,94723.53
2023-03-31T11:42:16.309Z,94708.31
2023-03-31T11:44:48.239Z,94672.09
2023-03-31T11:47:19.726Z,94656.25
2023-03-31T11:49:53.027Z,94656.38
2023-03-31T11:52:27.091Z,94640.31
2023-03-31T11:55:06.542Z,94643.69
2023-03-31T11:57:36.345Z,94642.28
2023-03-31T12:00:22.571Z,94630.47
2023-03-31T12:03:41.395Z,94609.38
2023-03-31T12:06:19.839Z,94574.53
2023-03-31T12:09:02.493Z,94591.22
2023-03-31T12:11:40.843Z,94565.88
2023-03-31T12:14:23.724Z,94574.13
2023-03-31T12:17:00.079Z,94580.81
2023-03-31T12:19:52.203Z,94588.81
2023-03-31T12:22:29.943Z,94568.31
2023-03-31T12:24:59.849Z,94560.81
2023-03-31T12:27:29.459Z,94577.50
2023-03-31T12:30:09.985Z,94566.34
2023-03-31T12:32:49.461Z,94582.13
2023-03-31T12:35:27.350Z,94574.97
2023-03-31T12:38:00.452Z,94569.91
2023-03-31T12:40:51.860Z,94585.56
2023-03-31T12:43:33.346Z,94594.06
2023-03-31T12:46:30.974Z,94604.34
2023-03-31T12:49:00.585Z,94609.16
2023-03-31T12:51:52.076Z,94610.03
2023-03-31T12:54:37.997Z,94602.13
2023-03-31T12:57:05.906Z,94601.34
2023-03-31T12:59:43.780Z,94602.13
2023-03-31T13:02:10.461Z,94599.59
2023-03-31T13:04:38.164Z,94604.78
2023-03-31T13:07:25.090Z,94610.09
2023-03-31T13:09:59.232Z,94608.97
2023-03-31T13:12:28.604Z,94612.69
2023-03-31T13:14:59.947Z,94598.97
2023-03-31T13:17:37.829Z,94601.53
2023-03-31T13:20:33.116Z,94607.53
2023-03-31T13:23:21.755Z,94542.03
2023-03-31T13:25:59.218Z,94518.63
2023-03-31T13:28:31.524Z,94490.19
2023-03-31T13:31:03.906Z,94519.81
2023-03-31T13:33:49.161Z,94532.94
2023-03-31T13:36:34.032Z,94547.22
2023-03-31T13:39:30.670Z,94554.41
2023-03-31T13:42:06.027Z,94557.56
2023-03-31T13:45:03.281Z,94570.50
2023-03-31T13:48:09.950Z,94585.94
2023-03-31T13:50:36.491Z,94606.34
2023-03-31T13:53:21.431Z,94594.75
2023-03-31T13:56:26.899Z,94596.44
2023-03-31T13:59:18.351Z,94623.09
2023-03-31T14:01:50.850Z,94612.34
2023-03-31T14:04:56.166Z,94585.75
2023-03-31T14:07:31.731Z,94567.16
2023-03-31T14:09:59.535Z,94576.22
2023-03-31T14:12:33.742Z,94587.72
2023-03-31T14:15:00.425Z,94600.50
2023-03-31T14:17:36.467Z,94589.91
2023-03-31T14:20:21.343Z,94595.81
2023-03-31T14:23:16.731Z,94603.50
2023-03-31T14:26:11.519Z,94614.84
2023-03-31T14:29:18.134Z,94610.34
2023-03-31T14:31:56.460Z,94605.44
2023-03-31T14:34:39.839Z,94614.91
2023-03-31T14:37:11.440Z,94598.34
2023-03-31T14:39:43.070Z,94624.94
2023-03-31T14:42:16.027Z,94649.88
2023-03-31T14:44:46.918Z,94686.28
2023-03-31T14:47:22.757Z,94685.47
2023-03-31T14:50:00.276Z,94670.84
2023-03-31T14:52:30.694Z,94662.41
2023-03-31T14:54:57.106Z,94691.16
2023-03-31T14:57:52.305Z,94689.00
2023-03-31T15:00:26.145Z,94582.56
2023-03-31T15:02:54.411Z,94603.91
2023-03-31T15:05:28.491Z,94622.66
2023-03-31T15:07:59.730Z,94599.31
2023-03-31T15:10:33.041Z,94587.97
2023-03-31T15:13:01.694Z,94587.72
2023-03-31T15:15:28.153Z,94569.19
2023-03-31T15:17:54.933Z,94585.28
2023-03-31T15:20:32.103Z,94577.25
2023-03-31T15:23:04.454Z,94557.88
2023-03-31T15:25:40.710Z,94573.69
2023-03-31T15:28:13.037Z,94579.56
2023-03-31T15:30:39.946Z,94568.69
2023-03-31T15:33:19.148Z,94559.41
2023-03-31T15:35:46.437Z,94568.38
2023-03-31T15:38:18.735Z,94557.25
2023-03-31T15:40:52.708Z,94584.34
2023-03-31T15:43:50.565Z,94575.50
2023-03-31T15:46:32.686Z,94582.34
2023-03-31T15:49:00.044Z,94572.88
2023-03-31T15:51:35.677Z,94575.66
2023-03-31T15:54:02.410Z,94581.09
2023-03-31T15:56:33.563Z,94597.06
2023-03-31T15:59:20.889Z,94588.03
2023-03-31T16:01:50.372Z,94578.59
2023-03-31T16:04:17.806Z,94568.66
2023-03-31T16:06:48.780Z,94582.69
2023-03-31T16:09:26.569Z,94580.03
2023-03-31T16:12:05.351Z,94565.63
2023-03-31T16:14:37.256Z,94583.44
2023-03-31T16:17:13.875Z,94561.22
2023-03-31T16:19:48.062Z,94565.59
2023-03-31T16:22:21.367Z,94547.16
2023-03-31T16:24:49.000Z,94559.25
2023-03-31T16:27:15.780Z,94568.69
2023-03-31T16:29:42.380Z,94551.78
2023-03-31T16:32:12.295Z,94565.31
2023-03-31T16:34:59.656Z,94563.59
2023-03-31T16:37:26.602Z,94559.88
2023-03-31T16:39:53.854Z,94583.31
2023-03-31T16:42:20.728Z,94578.19
2023-03-31T16:45:00.013Z,94583.63
2023-03-31T16:47:36.308Z,94560.72
2023-03-31T16:50:07.191Z,94589.53
2023-03-31T16:52:34.065Z,94572.38
2023-03-31T16:55:01.342Z,94674.03
2023-03-31T16:57:28.102Z,94642.25
2023-03-31T16:59:57.351Z,94669.38
2023-03-31T17:02:24.941Z,94621.28
2023-03-31T17:04:54.204Z,94681.09
2023-03-31T17:07:23.199Z,94670.13
2023-03-31T17:09:49.640Z,94641.41
2023-03-31T17:12:16.154Z,94664.25
2023-03-31T17:14:42.577Z,94645.22
2023-03-31T17:17:09.063Z,94657.19
2023-03-31T17:19:35.570Z,94622.44
2023-03-31T17:22:03.495Z,94644.69
2023-03-31T17:24:29.935Z,94647.31
2023-03-31T17:26:57.423Z,94658.22
2023-03-31T17:29:24.688Z,94668.44
2023-03-31T17:31:51.182Z,94674.59
2023-03-31T17:34:18.054Z,94638.34
2023-03-31T17:36:44.913Z,94643.38
2023-03-31T17:39:11.461Z,94653.78
2023-03-31T17:41:37.929Z,94668.25
2023-03-31T17:44:04.716Z,94652.41
2023-03-31T17:46:31.558Z,94650.38
2023-03-31T17:48:59.489Z,94659.66
2023-03-31T17:51:27.173Z,94650.50
2023-03-31T17:53:53.665Z,94666.06
2023-03-31T17:56:20.605Z,94679.38
2023-03-31T17:58:47.160Z,94656.22
2023-03-31T18:01:13.899Z,94600.72
2023-03-31T18:03:41.110Z,94689.28
2023-03-31T18:06:11.767Z,94691.97
2023-03-31T18:08:39.671Z,94682.09
2023-03-31T18:11:08.080Z,94682.97
2023-03-31T18:13:36.246Z,94671.19
2023-03-31T18:16:03.903Z,94700.25
2023-03-31T18:18:30.460Z,94680.03
2023-03-31T18:21:02.337Z,94685.31
2023-03-31T18:23:28.781Z,94717.78
2023-03-31T18:25:55.441Z,94698.34
2023-03-31T18:28:22.113Z,94698.53
2023-03-31T18:30:48.667Z,94705.06
2023-03-31T18:33:15.288Z,94717.81
2023-03-31T18:35:42.162Z,94721.09
2023-03-31T18:38:09.726Z,94713.09
2023-03-31T18:40:36.531Z,94695.59
2023-03-31T18:43:03.307Z,94719.63
2023-03-31T18:45:30.736Z,94732.47
2023-03-31T18:47:57.819Z,94750.00
2023-03-31T18:50:25.807Z,94714.56
2023-03-31T18:52:53.290Z,94700.25
2023-03-31T18:55:20.086Z,94694.03
2023-03-31T18:57:46.673Z,94719.22
2023-03-31T19:00:14.426Z,94727.78
2023-03-31T19:02:41.750Z,94744.63
2023-03-31T19:05:08.708Z,94728.38
2023-03-31T19:07:35.718Z,94724.78
2023-03-31T19:10:02.360Z,94721.09
2023-03-31T19:12:28.988Z,94749.47
2023-03-31T19:14:55.950Z,94706.50
2023-03-31T19:17:22.519Z,94749.69
2023-03-31T19:19:49.590Z,94665.75
2023-03-31T19:22:16.368Z,94750.84
2023-03-31T19:24:43.780Z,94734.09
2023-03-31T19:27:12.172Z,94754.72
2023-03-31T19:29:38.714Z,94712.00
2023-03-31T19:32:06.077Z,94739.19
2023-03-31T19:34:33.684Z,94666.94
2023-03-31T19:37:01.922Z,94728.31
2023-03-31T19:39:28.605Z,94728.47
2023-03-31T19:41:55.145Z,94723.13
2023-03-31T19:44:21.609Z,94690.56
2023-03-31T19:46:48.203Z,94703.59
2023-03-31T19:49:15.338Z,94716.63
2023-03-31T19:51:41.974Z,94695.03
2023-03-31T19:54:10.731Z,94672.09
2023-03-31T19:56:38.026Z,94712.94
2023-03-31T19:59:05.391Z,94608.38
2023-03-31T20:01:32.948Z,94693.00
2023-03-31T20:03:59.767Z,94689.31
2023-03-31T20:06:29.010Z,94697.94
2023-03-31T20:09:00.560Z,94689.09
2023-03-31T20:11:28.892Z,94665.84
2023-03-31T20:13:55.961Z,94692.69
2023-03-31T20:16:25.179Z,94638.25
2023-03-31T20:18:54.808Z,94677.34
2023-03-31T20:21:23.764Z,94688.19
2023-03-31T20:23:51.011Z,94685.00
2023-03-31T20:26:20.768Z,94547.94
2023-03-31T20:28:48.253Z,94682.66
2023-03-31T20:31:21.652Z,94688.78
2023-03-31T20:33:49.016Z,94643.66
2023-03-31T20:36:18.578Z,94682.06
2023-03-31T20:38:46.887Z,94667.38
2023-03-31T20:41:14.690Z,94588.56
2023-03-31T20:43:41.361Z,94665.72
2023-03-31T20:46:10.039Z,94678.34
2023-03-31T20:48:57.059Z,94670.41
2023-03-31T20:51:26.244Z,94685.84
2023-03-31T20:53:54.198Z,94679.03
2023-03-31T20:56:29.501Z,94646.00
2023-03-31T20:58:59.249Z,94685.72
2023-03-31T21:01:27.806Z,94685.06
2023-03-31T21:03:54.951Z,94679.19
2023-03-31T21:06:21.593Z,94695.72
2023-03-31T21:08:52.557Z,94700.81
2023-03-31T21:11:19.851Z,94691.03
2023-03-31T21:13:48.105Z,94689.28
2023-03-31T21:16:14.991Z,94704.31
2023-03-31T21:18:41.767Z,94650.88
2023-03-31T21:21:12.217Z,94668.94
2023-03-31T21:23:39.055Z,94715.59
2023-03-31T21:26:07.668Z,94711.88
2023-03-31T21:28:36.640Z,94678.09
2023-03-31T21:31:07.762Z,94703.16
2023-03-31T21:33:37.713Z,94693.81
2023-03-31T21:36:06.680Z,94677.28
2023-03-31T21:38:33.391Z,94691.97
2023-03-31T21:41:08.782Z,94695.28
2023-03-31T21:43:35.261Z,94716.59
2023-03-31T21:46:01.979Z,94715.63
2023-03-31T21:48:29.601Z,94703.38
2023-03-31T21:51:00.413Z,94715.63
2023-03-31T21:53:29.187Z,94723.03
2023-03-31T21:55:57.679Z,94740.16
2023-03-31T21:58:28.250Z,94713.28
2023-03-31T22:00:56.326Z,94727.41
2023-03-31T22:03:27.567Z,94718.25
2023-03-31T22:05:58.694Z,94736.66
2023-03-31T22:08:28.278Z,94734.09
2023-03-31T22:10:57.146Z,94727.50
2023-03-31T22:13:24.773Z,94735.09
2023-03-31T22:15:51.431Z,94736.66
2023-03-31T22:18:18.449Z,94731.00
2023-03-31T22:20:45.805Z,94731.00
2023-03-31T22:23:12.792Z,94727.31
2023-03-31T22:25:39.224Z,94715.06
2023-03-31T22:28:07.065Z,94720.88
2023-03-31T22:30:33.959Z,94716.41
2023-03-31T22:33:00.938Z,94714.94
2023-03-31T22:35:27.798Z,94724.09
2023-03-31T22:37:54.270Z,94679.38
2023-03-31T22:40:20.897Z,94714.38
2023-03-31T22:42:47.653Z,94741.13
2023-03-31T22:45:14.193Z,94749.78
2023-03-31T22:47:42.292Z,94739.47
2023-03-31T22:50:10.982Z,94760.97
2023-03-31T22:52:37.686Z,94749.31
2023-03-31T22:55:05.478Z,94749.88
2023-03-31T22:57:32.111Z,94752.22
2023-03-31T22:59:58.603Z,94751.06
2023-03-31T23:02:25.424Z,94745.69
2023-03-31T23:04:51.961Z,94732.69
2023-03-31T23:07:21.783Z,94748.91
2023-03-31T23:09:48.493Z,94737.72
2023-03-31T23:12:15.392Z,94709.31
2023-03-31T23:14:41.898Z,94734.13
2023-03-31T23:17:08.412Z,94719.72
2023-03-31T23:19:34.860Z,94720.22
2023-03-31T23:22:02.506Z,94708.75
2023-03-31T23:24:29.966Z,94734.69
2023-03-31T23:26:56.470Z,94731.22
2023-03-31T23:29:23.451Z,94736.28
2023-03-31T23:31:50.057Z,94718.88
2023-03-31T23:34:16.562Z,94716.03
2023-03-31T23:36:43.234Z,94718.47
2023-03-31T23:39:10.546Z,94737.34
2023-03-31T23:41:37.069Z,94732.56
2023-03-31T23:44:04.038Z,94740.75
2023-03-31T23:46:31.713Z,94734.13
2023-03-31T23:48:59.115Z,94725.38
2023-03-31T23:51:26.123Z,94731.59
2023-03-31T23:53:52.837Z,94734.13
2023-03-31T23:56:19.809Z,94728.88
2023-03-31T23:58:47.038Z,94739.75
